createdAt,value
2018-09-21T00:00:12.368Z,0.00
2018-09-21T00:01:12.352Z,0.00
2018-09-21T00:02:12.338Z,0.00
2018-09-21T00:03:12.319Z,0.00
2018-09-21T00:04:12.306Z,0.00
2018-09-21T00:05:12.288Z,0.00
2018-09-21T00:06:12.270Z,0.00
2018-09-21T00:07:12.256Z,0.00
2018-09-21T00:08:12.243Z,0.00
2018-09-21T00:09:12.230Z,0.00
2018-09-21T00:10:12.415Z,0.00
2018-09-21T00:11:12.194Z,0.00
2018-09-21T00:12:12.177Z,0.00
2018-09-21T00:13:12.161Z,0.00
2018-09-21T00:14:12.146Z,0.00
2018-09-21T00:15:12.128Z,0.00
2018-09-21T00:16:12.125Z,0.00
2018-09-21T00:17:12.100Z,0.00
2018-09-21T00:18:12.082Z,0.00
2018-09-21T00:19:12.065Z,0.00
2018-09-21T00:20:12.058Z,0.00
2018-09-21T00:21:12.030Z,0.00
2018-09-21T00:22:12.019Z,0.00
2018-09-21T00:23:12.002Z,0.00
2018-09-21T00:24:11.986Z,0.00
2018-09-21T00:25:11.966Z,0.00
2018-09-21T00:26:11.955Z,0.00
2018-09-21T00:27:11.945Z,0.00
2018-09-21T00:28:11.920Z,0.00
2018-09-21T00:29:11.906Z,0.00
2018-09-21T00:30:11.888Z,0.00
2018-09-21T00:31:11.874Z,0.00
2018-09-21T00:32:11.858Z,0.00
2018-09-21T00:33:11.841Z,0.00
2018-09-21T00:34:11.828Z,0.00
2018-09-21T00:35:11.804Z,0.00
2018-09-21T00:36:11.795Z,0.00
2018-09-21T00:37:11.777Z,0.00
2018-09-21T00:38:11.759Z,0.00
2018-09-21T00:39:11.740Z,0.00
2018-09-21T00:40:11.730Z,0.00
2018-09-21T00:41:11.713Z,0.00
2018-09-21T00:42:11.696Z,0.00
2018-09-21T00:43:11.676Z,0.00
2018-09-21T00:44:11.664Z,0.00
2018-09-21T00:45:11.650Z,0.00
2018-09-21T00:46:11.630Z,0.00
2018-09-21T00:47:11.619Z,0.00
2018-09-21T00:48:11.598Z,0.00
2018-09-21T00:49:11.582Z,0.00
2018-09-21T00:50:11.564Z,0.00
2018-09-21T00:51:11.557Z,0.00
2018-09-21T00:52:11.540Z,0.00
2018-09-21T00:53:11.517Z,0.00
2018-09-21T00:54:11.502Z,0.00
2018-09-21T00:55:11.484Z,0.00
2018-09-21T00:56:11.469Z,0.00
2018-09-21T00:57:11.461Z,0.00
2018-09-21T00:58:11.437Z,0.00
2018-09-21T00:59:11.420Z,0.00
2018-09-21T01:00:11.405Z,0.00
2018-09-21T01:01:11.386Z,0.00
2018-09-21T01:02:11.371Z,0.00
2018-09-21T01:03:11.358Z,0.00
2018-09-21T01:04:11.341Z,0.00
2018-09-21T01:05:11.322Z,0.00
2018-09-21T01:06:11.311Z,0.00
2018-09-21T01:07:11.286Z,0.00
2018-09-21T01:08:11.273Z,0.00
2018-09-21T01:09:11.257Z,0.00
2018-09-21T01:10:11.249Z,0.00
2018-09-21T01:11:11.230Z,0.00
2018-09-21T01:12:11.207Z,0.00
2018-09-21T01:13:11.191Z,0.00
2018-09-21T01:14:11.175Z,0.00
2018-09-21T01:15:11.156Z,0.00
2018-09-21T01:16:11.149Z,0.00
2018-09-21T01:17:11.125Z,0.00
2018-09-21T01:18:11.107Z,0.00
2018-09-21T01:19:11.093Z,0.00
2018-09-21T01:20:11.075Z,0.00
2018-09-21T01:21:11.059Z,0.00
2018-09-21T01:22:11.045Z,0.00
2018-09-21T01:23:11.069Z,0.00
2018-09-21T01:24:11.012Z,0.00
2018-09-21T01:25:10.995Z,0.00
2018-09-21T01:26:10.973Z,0.00
2018-09-21T01:27:10.960Z,0.00
2018-09-21T01:28:10.949Z,0.00
2018-09-21T01:29:10.931Z,0.00
2018-09-21T01:30:10.910Z,0.00
2018-09-21T01:31:10.902Z,0.00
2018-09-21T01:32:10.881Z,0.00
2018-09-21T01:33:11.365Z,0.00
2018-09-21T01:34:10.851Z,0.00
2018-09-21T01:35:10.830Z,0.00
2018-09-21T01:36:10.817Z,0.00
2018-09-21T01:37:10.799Z,0.00
2018-09-21T01:38:10.780Z,0.00
2018-09-21T01:39:10.767Z,0.00
2018-09-21T01:40:10.751Z,0.00
2018-09-21T01:41:10.735Z,0.00
2018-09-21T01:42:10.715Z,0.00
2018-09-21T01:43:10.702Z,0.00
2018-09-21T01:44:10.681Z,0.00
2018-09-21T01:45:10.666Z,0.00
2018-09-21T01:46:10.648Z,0.00
2018-09-21T01:47:10.632Z,0.00
2018-09-21T01:48:10.620Z,0.00
2018-09-21T01:49:10.601Z,0.00
2018-09-21T01:50:10.583Z,0.00
2018-09-21T01:51:10.572Z,0.00
2018-09-21T01:52:10.550Z,0.00
2018-09-21T01:53:10.535Z,0.00
2018-09-21T01:54:10.517Z,0.00
2018-09-21T01:55:10.503Z,0.00
2018-09-21T01:56:10.487Z,0.00
2018-09-21T01:57:10.464Z,0.00
2018-09-21T01:58:10.449Z,0.00
2018-09-21T01:59:10.435Z,0.00
2018-09-21T02:00:10.416Z,0.00
2018-09-21T02:01:10.407Z,0.00
2018-09-21T02:02:10.385Z,0.00
2018-09-21T02:03:10.365Z,0.00
2018-09-21T02:04:10.356Z,0.00
2018-09-21T02:05:10.339Z,0.00
2018-09-21T02:06:10.316Z,0.00
2018-09-21T02:07:10.307Z,0.00
2018-09-21T02:08:10.283Z,0.00
2018-09-21T02:09:10.265Z,0.00
2018-09-21T02:10:10.253Z,0.00
2018-09-21T02:11:10.233Z,0.00
2018-09-21T02:12:10.225Z,0.00
2018-09-21T02:13:10.197Z,0.00
2018-09-21T02:14:10.188Z,0.00
2018-09-21T02:15:10.171Z,0.00
2018-09-21T02:16:10.155Z,0.00
2018-09-21T02:17:10.139Z,0.00
2018-09-21T02:18:10.121Z,0.00
2018-09-21T02:19:10.105Z,0.00
2018-09-21T02:20:10.086Z,0.00
2018-09-21T02:21:10.071Z,0.00
2018-09-21T02:22:10.051Z,0.00
2018-09-21T02:23:10.034Z,0.00
2018-09-21T02:24:10.021Z,0.00
2018-09-21T02:25:10.003Z,0.00
2018-09-21T02:26:09.986Z,0.00
2018-09-21T02:27:09.968Z,0.00
2018-09-21T02:28:09.953Z,0.00
2018-09-21T02:29:09.933Z,0.00
2018-09-21T02:30:09.923Z,0.00
2018-09-21T02:31:09.905Z,0.00
2018-09-21T02:32:09.888Z,0.00
2018-09-21T02:33:09.870Z,0.00
2018-09-21T02:34:09.859Z,0.00
2018-09-21T02:35:09.836Z,0.00
2018-09-21T02:36:09.828Z,0.00
2018-09-21T02:37:09.809Z,0.00
2018-09-21T02:38:09.787Z,0.00
2018-09-21T02:39:09.769Z,0.00
2018-09-21T02:40:09.751Z,0.00
2018-09-21T02:41:09.739Z,0.00
2018-09-21T02:42:09.721Z,0.00
2018-09-21T02:43:09.709Z,0.00
2018-09-21T02:44:09.690Z,0.00
2018-09-21T02:45:09.675Z,0.00
2018-09-21T02:46:09.661Z,0.00
2018-09-21T02:47:09.642Z,0.00
2018-09-21T02:48:09.630Z,0.00
2018-09-21T02:49:09.608Z,0.00
2018-09-21T02:50:09.593Z,0.00
2018-09-21T02:51:09.572Z,0.00
2018-09-21T02:52:09.559Z,0.00
2018-09-21T02:53:09.539Z,0.00
2018-09-21T02:54:09.527Z,0.00
2018-09-21T02:55:09.514Z,0.00
2018-09-21T02:56:09.495Z,0.00
2018-09-21T02:57:09.475Z,0.00
2018-09-21T02:58:09.460Z,0.00
2018-09-21T02:59:09.453Z,0.00
2018-09-21T03:00:09.424Z,0.00
2018-09-21T03:01:09.412Z,0.00
2018-09-21T03:02:09.396Z,0.00
2018-09-21T03:03:09.378Z,0.00
2018-09-21T03:04:09.361Z,0.00
2018-09-21T03:05:09.345Z,0.00
2018-09-21T03:06:09.334Z,0.00
2018-09-21T03:07:09.313Z,0.00
2018-09-21T03:08:09.299Z,0.00
2018-09-21T03:09:09.285Z,0.00
2018-09-21T03:10:09.263Z,0.00
2018-09-21T03:11:09.241Z,0.00
2018-09-21T03:12:09.232Z,0.00
2018-09-21T03:13:09.250Z,0.00
2018-09-21T03:14:09.197Z,0.00
2018-09-21T03:15:09.180Z,0.00
2018-09-21T03:16:09.169Z,0.00
2018-09-21T03:17:09.151Z,0.00
2018-09-21T03:18:09.127Z,0.00
2018-09-21T03:19:09.120Z,0.00
2018-09-21T03:20:09.100Z,0.00
2018-09-21T03:21:09.081Z,0.00
2018-09-21T03:22:09.063Z,0.00
2018-09-21T03:23:09.046Z,0.00
2018-09-21T03:24:09.085Z,0.00
2018-09-21T03:25:09.013Z,0.00
2018-09-21T03:26:09.003Z,0.00
2018-09-21T03:27:08.987Z,0.00
2018-09-21T03:28:08.967Z,0.00
2018-09-21T03:29:08.960Z,0.00
2018-09-21T03:30:08.937Z,0.00
2018-09-21T03:31:08.919Z,0.00
2018-09-21T03:32:08.925Z,0.00
2018-09-21T03:33:08.889Z,0.00
2018-09-21T03:34:08.881Z,0.00
2018-09-21T03:35:08.863Z,0.00
2018-09-21T03:36:08.841Z,0.00
2018-09-21T03:37:08.824Z,0.00
2018-09-21T03:38:08.806Z,0.00
2018-09-21T03:39:08.804Z,0.00
2018-09-21T03:40:08.779Z,0.00
2018-09-21T03:41:08.760Z,0.00
2018-09-21T03:42:08.744Z,0.00
2018-09-21T03:43:08.735Z,0.00
2018-09-21T03:44:08.713Z,0.00
2018-09-21T03:45:08.699Z,0.00
2018-09-21T03:46:08.684Z,0.00
2018-09-21T03:47:08.665Z,0.00
2018-09-21T03:48:08.650Z,0.00
2018-09-21T03:49:08.633Z,0.00
2018-09-21T03:50:08.620Z,0.00
2018-09-21T03:51:08.603Z,0.00
2018-09-21T03:52:08.583Z,0.00
2018-09-21T03:53:08.571Z,0.00
2018-09-21T03:54:08.551Z,0.00
2018-09-21T03:55:08.539Z,0.00
2018-09-21T03:56:08.525Z,0.00
2018-09-21T03:57:08.510Z,0.00
2018-09-21T03:58:08.503Z,0.00
2018-09-21T03:59:08.482Z,0.00
2018-09-21T04:00:08.461Z,0.00
2018-09-21T04:01:08.497Z,0.00
2018-09-21T04:02:08.428Z,0.00
2018-09-21T04:03:08.412Z,0.00
2018-09-21T04:04:08.392Z,0.00
2018-09-21T04:05:08.382Z,0.00
2018-09-21T04:06:08.362Z,0.00
2018-09-21T04:07:08.345Z,0.00
2018-09-21T04:08:08.332Z,0.00
2018-09-21T04:09:08.315Z,0.00
2018-09-21T04:10:08.295Z,0.00
2018-09-21T04:11:08.294Z,0.00
2018-09-21T04:12:08.272Z,0.00
2018-09-21T04:13:08.257Z,0.00
2018-09-21T04:14:08.241Z,0.00
2018-09-21T04:15:08.228Z,0.00
2018-09-21T04:16:08.204Z,0.00
2018-09-21T04:17:08.188Z,0.00
2018-09-21T04:18:08.226Z,0.00
2018-09-21T04:19:08.158Z,0.00
2018-09-21T04:20:08.153Z,0.00
2018-09-21T04:21:08.124Z,0.00
2018-09-21T04:22:08.164Z,0.00
2018-09-21T04:23:08.145Z,0.00
2018-09-21T04:24:08.082Z,0.00
2018-09-21T04:25:08.066Z,0.00
2018-09-21T04:26:08.053Z,0.00
2018-09-21T04:27:08.033Z,0.00
2018-09-21T04:28:08.018Z,0.00
2018-09-21T04:29:08.000Z,0.00
2018-09-21T04:30:07.984Z,0.00
2018-09-21T04:31:07.968Z,0.00
2018-09-21T04:32:07.958Z,0.00
2018-09-21T04:33:07.938Z,0.00
2018-09-21T04:34:07.922Z,0.00
2018-09-21T04:35:07.909Z,0.00
2018-09-21T04:36:07.956Z,0.00
2018-09-21T04:37:07.875Z,0.00
2018-09-21T04:38:07.861Z,0.00
2018-09-21T04:39:07.845Z,0.00
2018-09-21T04:40:07.833Z,0.00
2018-09-21T04:41:07.818Z,0.00
2018-09-21T04:42:07.794Z,0.00
2018-09-21T04:43:07.780Z,0.00
2018-09-21T04:44:07.768Z,0.00
2018-09-21T04:45:07.750Z,0.00
2018-09-21T04:46:07.738Z,0.00
2018-09-21T04:47:07.722Z,0.00
2018-09-21T04:48:07.706Z,5.63
2018-09-21T04:49:07.692Z,5.63
2018-09-21T04:50:07.671Z,5.63
2018-09-21T04:51:07.663Z,5.63
2018-09-21T04:52:07.644Z,5.63
2018-09-21T04:53:07.631Z,5.63
2018-09-21T04:54:07.617Z,5.63
2018-09-21T04:55:07.601Z,5.63
2018-09-21T04:56:07.579Z,5.63
2018-09-21T04:57:07.568Z,5.63
2018-09-21T04:58:07.549Z,11.25
2018-09-21T04:59:07.532Z,11.25
2018-09-21T05:00:07.514Z,11.25
2018-09-21T05:01:07.502Z,11.25
2018-09-21T05:02:07.484Z,11.25
2018-09-21T05:03:07.468Z,11.25
2018-09-21T05:04:07.454Z,11.25
2018-09-21T05:05:07.442Z,16.88
2018-09-21T05:06:07.422Z,16.88
2018-09-21T05:07:07.408Z,16.88
2018-09-21T05:08:07.395Z,16.88
2018-09-21T05:09:07.382Z,16.88
2018-09-21T05:10:07.360Z,22.50
2018-09-21T05:11:07.342Z,22.50
2018-09-21T05:12:07.333Z,22.50
2018-09-21T05:13:07.316Z,22.50
2018-09-21T05:14:07.298Z,22.50
2018-09-21T05:15:07.281Z,28.13
2018-09-21T05:16:07.268Z,28.13
2018-09-21T05:17:07.252Z,28.13
2018-09-21T05:18:07.233Z,33.75
2018-09-21T05:19:07.222Z,33.75
2018-09-21T05:20:07.209Z,33.75
2018-09-21T05:21:07.186Z,33.75
2018-09-21T05:22:07.173Z,33.75
2018-09-21T05:23:07.160Z,39.38
2018-09-21T05:24:07.141Z,45.00
2018-09-21T05:25:07.144Z,56.25
2018-09-21T05:26:07.110Z,61.88
2018-09-21T05:27:07.101Z,61.88
2018-09-21T05:28:07.090Z,67.50
2018-09-21T05:29:07.062Z,73.13
2018-09-21T05:30:07.046Z,78.75
2018-09-21T05:31:07.037Z,78.75
2018-09-21T05:32:07.020Z,78.75
2018-09-21T05:33:07.005Z,78.75
2018-09-21T05:34:07.001Z,78.75
2018-09-21T05:35:07.037Z,84.38
2018-09-21T05:36:06.957Z,84.38
2018-09-21T05:37:06.942Z,84.38
2018-09-21T05:38:06.924Z,84.38
2018-09-21T05:39:06.912Z,84.38
2018-09-21T05:40:06.894Z,78.75
2018-09-21T05:41:06.877Z,84.38
2018-09-21T05:42:06.864Z,84.38
2018-09-21T05:43:06.846Z,95.63
2018-09-21T05:44:06.837Z,106.88
2018-09-21T05:45:06.816Z,112.50
2018-09-21T05:46:06.804Z,118.13
2018-09-21T05:47:06.787Z,123.75
2018-09-21T05:48:06.770Z,123.75
2018-09-21T05:49:06.753Z,129.38
2018-09-21T05:50:06.738Z,135.00
2018-09-21T05:51:06.722Z,135.00
2018-09-21T05:52:06.708Z,140.63
2018-09-21T05:53:06.700Z,146.25
2018-09-21T05:54:06.677Z,151.88
2018-09-21T05:55:06.662Z,163.13
2018-09-21T05:56:06.706Z,163.13
2018-09-21T05:57:06.632Z,168.75
2018-09-21T05:58:06.618Z,157.50
2018-09-21T05:59:06.610Z,151.88
2018-09-21T06:00:06.588Z,146.25
2018-09-21T06:01:06.581Z,146.25
2018-09-21T06:02:06.566Z,140.63
2018-09-21T06:03:06.544Z,135.00
2018-09-21T06:04:06.528Z,135.00
2018-09-21T06:05:06.514Z,135.00
2018-09-21T06:06:06.501Z,129.38
2018-09-21T06:07:06.481Z,123.75
2018-09-21T06:08:06.491Z,123.75
2018-09-21T06:09:06.454Z,123.75
2018-09-21T06:10:06.437Z,129.38
2018-09-21T06:11:06.422Z,129.38
2018-09-21T06:12:06.410Z,129.38
2018-09-21T06:13:06.402Z,129.38
2018-09-21T06:14:06.435Z,135.00
2018-09-21T06:15:06.369Z,135.00
2018-09-21T06:16:06.348Z,140.63
2018-09-21T06:17:06.336Z,140.63
2018-09-21T06:18:06.320Z,146.25
2018-09-21T06:19:06.305Z,146.25
2018-09-21T06:20:12.081Z,151.88
2018-09-21T06:21:06.307Z,157.50
2018-09-21T06:22:06.262Z,157.50
2018-09-21T06:23:06.332Z,163.13
2018-09-21T06:24:06.230Z,163.13
2018-09-21T06:25:06.221Z,168.75
2018-09-21T06:26:06.205Z,168.75
2018-09-21T06:27:06.186Z,174.38
2018-09-21T06:28:06.181Z,180.00
2018-09-21T06:29:06.156Z,185.63
2018-09-21T06:30:06.143Z,191.25
2018-09-21T06:31:06.125Z,196.88
2018-09-21T06:32:06.230Z,202.50
2018-09-21T06:33:06.104Z,202.50
2018-09-21T06:34:06.083Z,208.13
2018-09-21T06:35:06.070Z,208.13
2018-09-21T06:36:06.058Z,219.38
2018-09-21T06:37:06.038Z,230.63
2018-09-21T06:38:06.056Z,241.88
2018-09-21T06:39:06.014Z,247.50
2018-09-21T06:40:05.997Z,247.50
2018-09-21T06:41:06.052Z,253.13
2018-09-21T06:42:05.964Z,253.13
2018-09-21T06:43:05.954Z,258.75
2018-09-21T06:44:05.941Z,264.38
2018-09-21T06:45:05.926Z,275.63
2018-09-21T06:46:05.912Z,286.88
2018-09-21T06:47:05.894Z,303.75
2018-09-21T06:48:05.881Z,315.00
2018-09-21T06:49:05.870Z,320.63
2018-09-21T06:50:05.858Z,326.25
2018-09-21T06:51:05.840Z,331.88
2018-09-21T06:52:05.827Z,331.88
2018-09-21T06:53:05.813Z,331.88
2018-09-21T06:54:05.800Z,337.50
2018-09-21T06:55:05.785Z,331.88
2018-09-21T06:56:05.776Z,331.88
2018-09-21T06:57:05.759Z,337.50
2018-09-21T06:58:05.742Z,343.13
2018-09-21T06:59:05.734Z,354.38
2018-09-21T07:00:05.719Z,360.00
2018-09-21T07:01:05.702Z,376.88
2018-09-21T07:02:05.846Z,382.50
2018-09-21T07:03:05.675Z,365.63
2018-09-21T07:04:05.668Z,405.00
2018-09-21T07:05:05.646Z,410.63
2018-09-21T07:06:05.635Z,421.88
2018-09-21T07:07:05.631Z,427.50
2018-09-21T07:08:05.604Z,433.13
2018-09-21T07:09:05.593Z,461.25
2018-09-21T07:10:05.629Z,506.25
2018-09-21T07:11:05.576Z,900.00
2018-09-21T07:12:05.555Z,1130.63
2018-09-21T07:13:05.538Z,1040.63
2018-09-21T07:14:05.534Z,1125.00
2018-09-21T07:15:05.516Z,950.63
2018-09-21T07:16:05.500Z,793.13
2018-09-21T07:17:05.489Z,748.13
2018-09-21T07:18:05.523Z,759.38
2018-09-21T07:19:05.462Z,675.00
2018-09-21T07:20:05.452Z,624.38
2018-09-21T07:21:05.438Z,579.38
2018-09-21T07:22:05.429Z,590.63
2018-09-21T07:23:05.415Z,556.88
2018-09-21T07:24:05.406Z,573.75
2018-09-21T07:25:05.389Z,590.63
2018-09-21T07:26:05.373Z,596.25
2018-09-21T07:27:05.363Z,590.63
2018-09-21T07:28:05.352Z,573.75
2018-09-21T07:29:05.344Z,590.63
2018-09-21T07:30:05.331Z,562.50
2018-09-21T07:31:05.366Z,534.38
2018-09-21T07:32:05.312Z,472.50
2018-09-21T07:33:05.291Z,450.00
2018-09-21T07:34:05.281Z,461.25
2018-09-21T07:35:05.268Z,483.75
2018-09-21T07:36:05.256Z,450.00
2018-09-21T07:37:05.250Z,399.38
2018-09-21T07:38:05.234Z,376.88
2018-09-21T07:39:05.224Z,348.75
2018-09-21T07:40:05.210Z,331.88
2018-09-21T07:41:05.207Z,376.88
2018-09-21T07:42:05.192Z,427.50
2018-09-21T07:43:05.326Z,444.38
2018-09-21T07:44:05.170Z,540.00
2018-09-21T07:45:05.163Z,466.88
2018-09-21T07:46:05.145Z,483.75
2018-09-21T07:47:05.137Z,500.63
2018-09-21T07:48:05.125Z,585.00
2018-09-21T07:49:05.186Z,877.50
2018-09-21T07:50:05.102Z,905.63
2018-09-21T07:51:05.087Z,810.00
2018-09-21T07:52:05.088Z,900.00
2018-09-21T07:53:05.062Z,922.50
2018-09-21T07:54:05.057Z,821.25
2018-09-21T07:55:05.044Z,759.38
2018-09-21T07:56:05.031Z,810.00
2018-09-21T07:57:05.026Z,635.63
2018-09-21T07:58:05.008Z,708.75
2018-09-21T07:59:04.996Z,1198.13
2018-09-21T08:00:04.998Z,1389.38
2018-09-21T08:01:04.987Z,1726.88
2018-09-21T08:02:04.960Z,1884.38
2018-09-21T08:03:04.962Z,2019.38
2018-09-21T08:04:04.946Z,2115.00
2018-09-21T08:05:04.972Z,2081.25
2018-09-21T08:06:04.923Z,2340.00
2018-09-21T08:07:04.931Z,2401.88
2018-09-21T08:08:04.912Z,2306.25
2018-09-21T08:09:04.892Z,2261.25
2018-09-21T08:10:04.882Z,2295.00
2018-09-21T08:11:04.872Z,2368.13
2018-09-21T08:12:04.862Z,2458.13
2018-09-21T08:13:04.856Z,2396.25
2018-09-21T08:14:04.842Z,2396.25
2018-09-21T08:15:04.834Z,2593.13
2018-09-21T08:16:04.826Z,2345.63
2018-09-21T08:17:04.818Z,2520.00
2018-09-21T08:18:04.806Z,2531.25
2018-09-21T08:19:04.800Z,2542.50
2018-09-21T08:20:04.794Z,2683.13
2018-09-21T08:21:04.782Z,2722.50
2018-09-21T08:22:04.770Z,2643.75
2018-09-21T08:23:04.764Z,2542.50
2018-09-21T08:24:04.760Z,2182.50
2018-09-21T08:25:04.775Z,1991.25
2018-09-21T08:26:04.742Z,1963.13
2018-09-21T08:27:04.733Z,1665.00
2018-09-21T08:28:04.730Z,2188.13
2018-09-21T08:29:04.722Z,1687.50
2018-09-21T08:30:04.710Z,1181.25
2018-09-21T08:31:04.705Z,1996.88
2018-09-21T08:32:04.698Z,1473.75
2018-09-21T08:33:04.736Z,1085.63
2018-09-21T08:34:04.676Z,742.50
2018-09-21T08:35:04.672Z,810.00
2018-09-21T08:36:04.663Z,781.88
2018-09-21T08:37:04.717Z,708.75
2018-09-21T08:38:04.674Z,641.25
2018-09-21T08:39:04.644Z,708.75
2018-09-21T08:40:04.635Z,697.50
2018-09-21T08:41:04.632Z,669.38
2018-09-21T08:42:04.620Z,663.75
2018-09-21T08:43:04.615Z,652.50
2018-09-21T08:44:04.604Z,646.88
2018-09-21T08:45:04.598Z,624.38
2018-09-21T08:46:04.595Z,618.75
2018-09-21T08:47:04.582Z,618.75
2018-09-21T08:48:04.582Z,579.38
2018-09-21T08:49:04.570Z,556.88
2018-09-21T08:50:04.565Z,568.13
2018-09-21T08:51:04.552Z,579.38
2018-09-21T08:52:04.548Z,585.00
2018-09-21T08:53:04.539Z,585.00
2018-09-21T08:54:04.528Z,618.75
2018-09-21T08:55:04.556Z,556.88
2018-09-21T08:56:04.512Z,545.63
2018-09-21T08:57:04.510Z,607.50
2018-09-21T08:58:04.503Z,624.38
2018-09-21T08:59:04.492Z,686.25
2018-09-21T09:00:04.488Z,579.38
2018-09-21T09:01:04.480Z,315.00
2018-09-21T09:02:04.472Z,540.00
2018-09-21T09:03:04.541Z,686.25
2018-09-21T09:04:04.458Z,703.13
2018-09-21T09:05:04.450Z,697.50
2018-09-21T09:06:04.444Z,691.88
2018-09-21T09:07:04.432Z,686.25
2018-09-21T09:08:04.424Z,680.63
2018-09-21T09:09:04.420Z,686.25
2018-09-21T09:10:04.424Z,680.63
2018-09-21T09:11:04.405Z,686.25
2018-09-21T09:12:04.402Z,686.25
2018-09-21T09:13:04.392Z,691.88
2018-09-21T09:14:04.383Z,697.50
2018-09-21T09:15:04.379Z,703.13
2018-09-21T09:16:04.372Z,669.38
2018-09-21T09:17:04.362Z,691.88
2018-09-21T09:18:04.359Z,697.50
2018-09-21T09:19:04.350Z,697.50
2018-09-21T09:20:04.340Z,703.13
2018-09-21T09:21:04.332Z,708.75
2018-09-21T09:22:04.333Z,708.75
2018-09-21T09:23:04.366Z,714.38
2018-09-21T09:24:04.314Z,720.00
2018-09-21T09:25:04.378Z,720.00
2018-09-21T09:26:04.304Z,720.00
2018-09-21T09:27:04.293Z,720.00
2018-09-21T09:28:04.286Z,725.63
2018-09-21T09:29:04.280Z,731.25
2018-09-21T09:30:04.331Z,731.25
2018-09-21T09:31:04.267Z,742.50
2018-09-21T09:32:04.259Z,748.13
2018-09-21T09:33:04.253Z,748.13
2018-09-21T09:34:04.244Z,759.38
2018-09-21T09:35:04.237Z,759.38
2018-09-21T09:36:04.236Z,770.63
2018-09-21T09:37:04.227Z,787.50
2018-09-21T09:38:04.224Z,793.13
2018-09-21T09:39:04.214Z,793.13
2018-09-21T09:40:04.208Z,736.88
2018-09-21T09:41:04.205Z,826.88
2018-09-21T09:42:04.198Z,736.88
2018-09-21T09:43:04.358Z,821.25
2018-09-21T09:44:04.192Z,832.50
2018-09-21T09:45:04.176Z,838.13
2018-09-21T09:46:04.174Z,849.38
2018-09-21T09:47:04.160Z,883.13
2018-09-21T09:48:04.156Z,753.75
2018-09-21T09:49:04.276Z,781.88
2018-09-21T09:50:04.145Z,781.88
2018-09-21T09:51:04.140Z,652.50
2018-09-21T09:52:04.137Z,596.25
2018-09-21T09:53:04.128Z,585.00
2018-09-21T09:54:04.116Z,843.75
2018-09-21T09:55:04.112Z,883.13
2018-09-21T09:56:04.114Z,770.63
2018-09-21T09:57:04.107Z,798.75
2018-09-21T09:58:04.103Z,1006.88
2018-09-21T09:59:04.091Z,877.50
2018-09-21T10:00:04.086Z,686.25
2018-09-21T10:01:04.116Z,894.38
2018-09-21T10:02:04.070Z,928.13
2018-09-21T10:03:04.068Z,894.38
2018-09-21T10:04:04.064Z,815.63
2018-09-21T10:05:04.062Z,776.25
2018-09-21T10:06:04.046Z,871.88
2018-09-21T10:07:04.046Z,843.75
2018-09-21T10:08:04.042Z,714.38
2018-09-21T10:09:04.034Z,748.13
2018-09-21T10:10:04.031Z,843.75
2018-09-21T10:11:04.021Z,781.88
2018-09-21T10:12:04.018Z,669.38
2018-09-21T10:13:04.014Z,1012.50
2018-09-21T10:14:04.009Z,1001.25
2018-09-21T10:15:04.005Z,708.75
2018-09-21T10:16:04.001Z,669.38
2018-09-21T10:17:04.001Z,815.63
2018-09-21T10:18:03.986Z,1029.38
2018-09-21T10:19:03.984Z,1141.88
2018-09-21T10:20:03.980Z,1102.50
2018-09-21T10:21:03.968Z,1260.00
2018-09-21T10:22:03.968Z,945.00
2018-09-21T10:23:03.959Z,765.00
2018-09-21T10:24:04.011Z,900.00
2018-09-21T10:25:03.951Z,1108.13
2018-09-21T10:26:03.942Z,1029.38
2018-09-21T10:27:03.963Z,1186.88
2018-09-21T10:28:04.133Z,905.63
2018-09-21T10:29:03.925Z,838.13
2018-09-21T10:30:03.928Z,641.25
2018-09-21T10:31:03.921Z,753.75
2018-09-21T10:32:03.934Z,1091.25
2018-09-21T10:33:03.908Z,1147.50
2018-09-21T10:34:03.903Z,1501.88
2018-09-21T10:35:03.900Z,1378.13
2018-09-21T10:36:03.889Z,1411.88
2018-09-21T10:37:03.959Z,1068.75
2018-09-21T10:38:03.881Z,1096.88
2018-09-21T10:39:03.957Z,736.88
2018-09-21T10:40:03.961Z,736.88
2018-09-21T10:41:03.874Z,810.00
2018-09-21T10:42:03.863Z,1153.13
2018-09-21T10:43:03.936Z,1046.25
2018-09-21T10:44:03.851Z,1046.25
2018-09-21T10:45:03.851Z,1001.25
2018-09-21T10:46:03.843Z,1170.00
2018-09-21T10:47:03.836Z,849.38
2018-09-21T10:48:03.833Z,686.25
2018-09-21T10:49:03.836Z,601.88
2018-09-21T10:50:03.823Z,590.63
2018-09-21T10:51:03.816Z,590.63
2018-09-21T10:52:03.811Z,613.13
2018-09-21T10:53:03.814Z,641.25
2018-09-21T10:54:03.806Z,753.75
2018-09-21T10:55:03.797Z,928.13
2018-09-21T10:56:03.793Z,1068.75
2018-09-21T10:57:03.793Z,956.25
2018-09-21T10:58:03.793Z,517.50
2018-09-21T10:59:03.780Z,523.13
2018-09-21T11:00:03.775Z,495.00
2018-09-21T11:01:03.790Z,450.00
2018-09-21T11:02:03.762Z,416.25
2018-09-21T11:03:03.757Z,405.00
2018-09-21T11:04:03.759Z,450.00
2018-09-21T11:05:03.755Z,466.88
2018-09-21T11:06:03.743Z,472.50
2018-09-21T11:07:03.777Z,585.00
2018-09-21T11:08:03.733Z,511.88
2018-09-21T11:09:03.731Z,444.38
2018-09-21T11:10:03.726Z,1293.75
2018-09-21T11:11:03.717Z,1440.00
2018-09-21T11:12:03.715Z,1552.50
2018-09-21T11:13:03.824Z,1085.63
2018-09-21T11:14:03.702Z,1130.63
2018-09-21T11:15:03.707Z,1479.38
2018-09-21T11:16:03.693Z,1248.75
2018-09-21T11:17:03.690Z,1018.13
2018-09-21T11:18:03.683Z,1035.00
2018-09-21T11:19:03.681Z,736.88
2018-09-21T11:20:46.208Z,630.00
2018-09-21T11:21:46.225Z,500.63
2018-09-21T11:22:46.203Z,461.25
2018-09-21T11:23:46.197Z,455.63
2018-09-21T11:24:46.190Z,500.63
2018-09-21T11:25:46.191Z,877.50
2018-09-21T11:26:46.184Z,1136.25
2018-09-21T11:27:46.177Z,3290.63
2018-09-21T11:28:46.175Z,3262.50
2018-09-21T11:29:46.175Z,3532.50
2018-09-21T11:30:46.179Z,3633.75
2018-09-21T11:31:46.163Z,3982.50
2018-09-21T11:32:46.155Z,4095.00
2018-09-21T11:33:46.151Z,4173.75
2018-09-21T11:34:46.145Z,4106.25
2018-09-21T11:35:46.143Z,4038.75
2018-09-21T11:36:46.137Z,3943.13
2018-09-21T11:37:46.149Z,4005.00
2018-09-21T11:38:46.135Z,4134.38
2018-09-21T11:39:46.125Z,4145.63
2018-09-21T11:40:46.120Z,4083.75
2018-09-21T11:41:46.115Z,4066.88
2018-09-21T11:42:46.317Z,3943.13
2018-09-21T11:43:46.108Z,3819.38
2018-09-21T11:44:46.101Z,3690.00
2018-09-21T11:45:46.099Z,3661.88
2018-09-21T11:46:46.135Z,3886.88
2018-09-21T11:47:46.121Z,3763.13
2018-09-21T11:48:46.085Z,3448.13
2018-09-21T11:49:46.085Z,2818.13
2018-09-21T11:50:46.077Z,1552.50
2018-09-21T11:51:46.081Z,2975.63
2018-09-21T11:52:46.079Z,1552.50
2018-09-21T11:53:46.071Z,1850.63
2018-09-21T11:54:46.081Z,596.25
2018-09-21T11:55:46.063Z,1980.00
2018-09-21T11:56:46.061Z,3009.38
2018-09-21T11:57:46.057Z,3245.63
2018-09-21T11:58:46.055Z,2998.13
2018-09-21T11:59:46.050Z,1479.38
2018-09-21T12:00:46.051Z,551.25
2018-09-21T12:01:46.067Z,500.63
2018-09-21T12:02:46.045Z,646.88
2018-09-21T12:03:46.037Z,3088.13
2018-09-21T12:04:46.033Z,3105.00
2018-09-21T12:05:46.032Z,2193.75
2018-09-21T12:06:46.028Z,2683.13
2018-09-21T12:07:46.027Z,1906.88
2018-09-21T12:08:46.025Z,736.88
2018-09-21T12:09:46.013Z,466.88
2018-09-21T12:10:46.011Z,562.50
2018-09-21T12:11:46.005Z,950.63
2018-09-21T12:12:46.009Z,1355.63
2018-09-21T12:13:45.997Z,2115.00
2018-09-21T12:14:45.994Z,2694.38
2018-09-21T12:15:45.995Z,3245.63
2018-09-21T12:16:45.988Z,3431.25
2018-09-21T12:17:45.981Z,3301.88
2018-09-21T12:18:45.979Z,3313.13
2018-09-21T12:19:45.977Z,3116.25
2018-09-21T12:20:45.986Z,2559.38
2018-09-21T12:21:45.969Z,2013.75
2018-09-21T12:22:45.970Z,2300.63
2018-09-21T12:23:45.955Z,2306.25
2018-09-21T12:24:45.960Z,714.38
2018-09-21T12:25:45.951Z,860.63
2018-09-21T12:26:45.949Z,573.75
2018-09-21T12:27:45.945Z,871.88
2018-09-21T12:28:45.938Z,489.38
2018-09-21T12:29:45.938Z,843.75
2018-09-21T12:30:45.938Z,939.38
2018-09-21T12:32:06.613Z,855.00
2018-09-21T12:33:06.611Z,652.50
2018-09-21T12:34:06.602Z,511.88
2018-09-21T12:35:06.599Z,489.38
2018-09-21T12:36:06.678Z,483.75
2018-09-21T12:37:06.586Z,523.13
2018-09-21T12:38:06.583Z,573.75
2018-09-21T12:39:06.580Z,511.88
2018-09-21T12:40:06.573Z,489.38
2018-09-21T12:41:06.565Z,534.38
2018-09-21T12:42:06.559Z,455.63
2018-09-21T12:43:06.561Z,511.88
2018-09-21T12:44:06.554Z,658.13
2018-09-21T12:45:06.548Z,725.63